Barksdale AFB, Louisiana
Current Conditions -  °F | °C
As of 11:58 PM on Saturday 22 Nov 2014 (Local Time) from KBAD Reporting Station
Light Rain Light Rain  
Wind Chill: 61°   Ceiling: 1100
Heat Index: 61°   Visibility: 3mi
Dew Point: 61°   Wind: 9mph
Humidity: 100%   Direction: 140°SE
Pressure: 29.77"   Gusts: NA
Location:  32.5°N, 93.67°W
Report Text: KBAD 230558Z AUTO 14008KT 3SM R15/4000FT -RA BR OVC011 16/16 A2977 RMK AO2 SLP083 P0021 60087 T01630163 10182 20160 402210126 57028
Loading
Personal Weather Stations






























Interactive Weather Map New forecast layout! Learn more

10-Day Weather Forecast

Advertisements
Track Severe Weather on mobile